createdAt,value
2022-11-14T00:01:11.279Z,20.60
2022-11-14T00:03:38.237Z,22.00
2022-11-14T00:06:06.922Z,21.60
2022-11-14T00:08:35.388Z,21.80
2022-11-14T00:11:02.888Z,21.27
2022-11-14T00:13:30.861Z,21.38
2022-11-14T00:15:57.647Z,21.40
2022-11-14T00:18:24.382Z,22.05
2022-11-14T00:20:53.168Z,23.35
2022-11-14T00:23:22.796Z,23.50
2022-11-14T00:25:50.017Z,24.33
2022-11-14T00:28:16.787Z,20.75
2022-11-14T00:30:50.294Z,22.80
2022-11-14T00:33:20.994Z,22.27
2022-11-14T00:35:55.311Z,22.97
2022-11-14T00:38:22.937Z,26.92
2022-11-14T00:40:49.786Z,23.48
2022-11-14T00:43:16.492Z,23.73
2022-11-14T00:45:45.064Z,22.80
2022-11-14T00:48:11.772Z,24.52
2022-11-14T00:50:38.506Z,22.25
2022-11-14T00:53:05.494Z,23.80
2022-11-14T00:55:32.199Z,22.20
2022-11-14T00:57:58.990Z,23.20
2022-11-14T01:00:25.847Z,22.00
2022-11-14T01:02:57.781Z,24.27
2022-11-14T01:05:25.475Z,22.73
2022-11-14T01:07:53.890Z,22.95
2022-11-14T01:10:21.087Z,22.85
2022-11-14T01:12:47.827Z,21.98
2022-11-14T01:15:14.655Z,22.08
2022-11-14T01:17:41.439Z,23.52
2022-11-14T01:20:08.628Z,21.13
2022-11-14T01:22:35.359Z,21.58
2022-11-14T01:25:02.153Z,22.27
2022-11-14T01:27:31.662Z,22.52
2022-11-14T01:29:58.398Z,22.20
2022-11-14T01:32:27.450Z,21.25
2022-11-14T01:34:54.219Z,21.80
2022-11-14T01:37:20.973Z,20.17
2022-11-14T01:39:47.778Z,21.15
2022-11-14T01:42:14.526Z,20.05
2022-11-14T01:44:46.636Z,20.63
2022-11-14T01:47:18.651Z,20.23
2022-11-14T01:49:48.998Z,20.80
2022-11-14T01:52:41.233Z,19.23
2022-11-14T01:55:10.591Z,22.55
2022-11-14T01:57:42.382Z,19.42
2022-11-14T02:00:11.912Z,19.67
2022-11-14T02:02:38.927Z,21.17
2022-11-14T02:05:12.810Z,19.85
2022-11-14T02:07:43.804Z,19.90
2022-11-14T02:10:19.993Z,18.83
2022-11-14T02:12:47.241Z,22.10
2022-11-14T02:15:14.799Z,19.83
2022-11-14T02:17:42.877Z,20.73
2022-11-14T02:20:12.478Z,20.90
2022-11-14T02:22:41.763Z,19.47
2022-11-14T02:25:10.501Z,21.20
2022-11-14T02:27:39.422Z,20.23
2022-11-14T02:30:09.055Z,21.05
2022-11-14T02:33:09.926Z,22.42
2022-11-14T02:35:22.811Z,19.30
2022-11-14T02:37:50.020Z,20.60
2022-11-14T02:40:17.061Z,21.40
2022-11-14T02:42:43.792Z,23.17
2022-11-14T02:45:12.443Z,20.67
2022-11-14T02:47:40.327Z,21.90
2022-11-14T02:50:07.294Z,20.83
2022-11-14T02:52:34.069Z,19.88
2022-11-14T02:55:00.948Z,19.77
2022-11-14T02:57:27.852Z,19.55
2022-11-14T02:59:54.628Z,21.65
2022-11-14T03:02:27.544Z,21.50
2022-11-14T03:04:54.433Z,19.30
2022-11-14T03:07:21.359Z,20.88
2022-11-14T03:09:48.125Z,20.98
2022-11-14T03:12:18.908Z,21.25
2022-11-14T03:14:46.034Z,21.02
2022-11-14T03:17:12.981Z,20.60
2022-11-14T03:19:39.873Z,20.70
2022-11-14T03:22:06.735Z,21.27
2022-11-14T03:24:33.732Z,20.23
2022-11-14T03:27:00.641Z,20.63
2022-11-14T03:29:29.055Z,19.00
2022-11-14T03:31:55.884Z,21.02
2022-11-14T03:34:22.593Z,20.60
2022-11-14T03:36:49.367Z,19.98
2022-11-14T03:39:16.325Z,19.80
2022-11-14T03:41:43.229Z,21.08
2022-11-14T03:44:10.135Z,19.80
2022-11-14T03:46:36.896Z,23.05
2022-11-14T03:49:04.073Z,20.63
2022-11-14T03:51:30.806Z,20.67
2022-11-14T03:53:57.512Z,17.38
2022-11-14T03:56:24.392Z,18.83
2022-11-14T03:58:51.083Z,18.65
2022-11-14T04:01:17.815Z,18.42
2022-11-14T04:03:44.748Z,18.48
2022-11-14T04:06:11.493Z,18.15
2022-11-14T04:08:40.807Z,24.08
2022-11-14T04:11:07.971Z,24.85
2022-11-14T04:13:34.905Z,20.17
2022-11-14T04:16:01.615Z,20.42
2022-11-14T04:18:29.075Z,19.02
2022-11-14T04:20:56.054Z,24.13
2022-11-14T04:23:22.777Z,25.60
2022-11-14T04:25:49.735Z,21.38
2022-11-14T04:28:16.714Z,19.70
2022-11-14T04:30:45.227Z,20.52
2022-11-14T04:33:12.241Z,20.33
2022-11-14T04:35:40.173Z,19.00
2022-11-14T04:38:07.130Z,20.02
2022-11-14T04:40:36.177Z,20.40
2022-11-14T04:43:02.900Z,20.60
2022-11-14T04:45:29.827Z,20.90
2022-11-14T04:47:56.540Z,21.08
2022-11-14T04:50:23.278Z,23.70
2022-11-14T04:52:53.847Z,24.85
2022-11-14T04:57:47.337Z,22.52
2022-11-14T05:00:14.700Z,20.48
2022-11-14T05:02:41.395Z,19.63
2022-11-14T05:05:08.543Z,19.70
2022-11-14T05:07:35.337Z,20.95
2022-11-14T05:10:02.118Z,21.83
2022-11-14T05:12:28.819Z,19.40
2022-11-14T05:14:55.584Z,20.70
2022-11-14T05:17:22.602Z,19.77
2022-11-14T05:19:49.342Z,20.20
2022-11-14T05:22:16.062Z,20.80
2022-11-14T05:24:42.754Z,21.70
2022-11-14T05:27:09.677Z,20.45
2022-11-14T05:29:36.418Z,22.13
2022-11-14T05:32:03.288Z,23.17
2022-11-14T05:34:30.087Z,26.15
2022-11-14T05:36:56.789Z,24.77
2022-11-14T05:39:23.499Z,22.50
2022-11-14T05:41:50.283Z,21.38
2022-11-14T05:44:17.008Z,20.70
2022-11-14T05:46:43.730Z,21.52
2022-11-14T05:49:10.448Z,20.70
2022-11-14T05:51:37.144Z,22.27
2022-11-14T05:54:04.170Z,20.20
2022-11-14T05:56:30.927Z,19.10
2022-11-14T05:58:57.694Z,20.02
2022-11-14T06:01:24.443Z,22.48
2022-11-14T06:03:51.253Z,20.38
2022-11-14T06:06:20.912Z,21.10
2022-11-14T06:08:48.265Z,20.90
2022-11-14T06:11:19.758Z,21.48
2022-11-14T06:13:46.885Z,21.55
2022-11-14T06:16:16.239Z,20.27
2022-11-14T06:18:43.388Z,21.45
2022-11-14T06:21:15.259Z,22.45
2022-11-14T06:23:42.547Z,20.88
2022-11-14T06:26:32.322Z,21.33
2022-11-14T06:29:00.181Z,21.10
2022-11-14T06:31:27.501Z,20.40
2022-11-14T06:33:54.582Z,22.25
2022-11-14T06:36:21.409Z,21.33
2022-11-14T06:38:48.162Z,26.45
2022-11-14T06:41:17.602Z,24.65
2022-11-14T06:43:46.335Z,21.38
2022-11-14T06:46:15.734Z,22.20
2022-11-14T06:48:43.789Z,22.58
2022-11-14T06:51:12.267Z,21.30
2022-11-14T06:53:39.577Z,20.67
2022-11-14T06:56:17.867Z,22.52
2022-11-14T06:58:47.051Z,22.35
2022-11-14T07:01:20.934Z,22.63
2022-11-14T07:03:48.354Z,20.95
2022-11-14T07:06:23.647Z,22.63
2022-11-14T07:08:51.564Z,20.35
2022-11-14T07:11:23.839Z,22.27
2022-11-14T07:13:52.057Z,23.52
2022-11-14T07:16:19.883Z,23.13
2022-11-14T07:18:46.707Z,22.25
2022-11-14T07:21:13.592Z,23.50
2022-11-14T07:23:41.501Z,22.45
2022-11-14T07:26:10.667Z,24.00
2022-11-14T07:28:39.832Z,21.92
2022-11-14T07:31:08.488Z,23.40
2022-11-14T07:33:35.793Z,22.50
2022-11-14T07:36:02.749Z,23.13
2022-11-14T07:38:31.962Z,21.60
2022-11-14T07:41:07.231Z,24.33
2022-11-14T07:43:34.234Z,22.02
2022-11-14T07:46:02.247Z,21.67
2022-11-14T07:48:30.353Z,21.95
2022-11-14T07:51:04.860Z,20.02
2022-11-14T07:53:32.798Z,22.02
2022-11-14T07:56:05.375Z,22.40
2022-11-14T07:58:34.736Z,22.55
2022-11-14T08:01:02.694Z,22.08
2022-11-14T08:03:29.661Z,24.25
2022-11-14T08:06:11.754Z,23.50
2022-11-14T08:08:38.627Z,23.85
2022-11-14T08:11:05.596Z,22.05
2022-11-14T08:13:33.742Z,22.23
2022-11-14T08:16:12.283Z,22.50
2022-11-14T08:18:40.501Z,24.42
2022-11-14T08:21:07.365Z,22.48
2022-11-14T08:23:34.296Z,24.10
2022-11-14T08:26:01.077Z,22.48
2022-11-14T08:28:28.531Z,23.40
2022-11-14T08:31:02.924Z,22.33
2022-11-14T08:33:30.538Z,22.92
2022-11-14T08:36:04.972Z,22.98
2022-11-14T08:38:33.715Z,24.45
2022-11-14T08:41:02.084Z,24.90
2022-11-14T08:43:29.772Z,22.90
2022-11-14T08:46:02.420Z,22.92
2022-11-14T08:48:30.555Z,22.42
2022-11-14T08:50:58.093Z,24.33
2022-11-14T08:53:24.975Z,23.20
2022-11-14T08:55:51.684Z,23.05
2022-11-14T08:58:18.403Z,22.95
2022-11-14T09:00:45.583Z,23.73
2022-11-14T09:03:16.200Z,22.83
2022-11-14T09:05:43.652Z,24.45
2022-11-14T09:08:10.363Z,23.40
2022-11-14T09:10:37.757Z,23.25
2022-11-14T09:13:04.760Z,24.08
2022-11-14T09:15:31.739Z,23.85
2022-11-14T09:17:58.709Z,23.95
2022-11-14T09:20:32.255Z,23.55
2022-11-14T09:23:02.296Z,23.33
2022-11-14T09:25:30.049Z,21.85
2022-11-14T09:27:57.249Z,22.70
2022-11-14T09:30:24.148Z,22.65
2022-11-14T09:32:51.376Z,23.08
2022-11-14T09:35:18.138Z,22.63
2022-11-14T09:37:44.845Z,23.00
2022-11-14T09:40:13.619Z,22.50
2022-11-14T09:42:58.847Z,23.00
2022-11-14T09:45:25.942Z,23.95
2022-11-14T09:48:15.605Z,22.30
2022-11-14T09:51:10.419Z,22.23
2022-11-14T09:53:46.318Z,22.25
2022-11-14T09:56:17.124Z,20.90
2022-11-14T09:58:43.869Z,20.67
2022-11-14T10:01:28.601Z,23.00
2022-11-14T10:04:39.049Z,23.67
2022-11-14T10:07:24.088Z,22.20
2022-11-14T10:10:00.719Z,20.95
2022-11-14T10:12:43.338Z,22.42
2022-11-14T10:15:13.523Z,20.08
2022-11-14T10:18:08.855Z,21.85
2022-11-14T10:20:47.720Z,19.52
2022-11-14T10:23:22.413Z,21.85
2022-11-14T10:25:56.208Z,18.45
2022-11-14T10:28:47.584Z,19.90
2022-11-14T10:31:29.204Z,20.50
2022-11-14T10:34:13.542Z,18.67
2022-11-14T10:37:15.305Z,20.05
2022-11-14T10:40:05.319Z,22.15
2022-11-14T10:42:39.338Z,19.23
2022-11-14T10:45:09.107Z,20.88
2022-11-14T10:47:43.951Z,20.80
2022-11-14T10:50:26.644Z,19.83
2022-11-14T10:53:02.032Z,18.27
2022-11-14T10:55:57.273Z,19.52
2022-11-14T10:58:15.858Z,21.13
2022-11-14T11:00:42.697Z,20.58
2022-11-14T11:03:09.565Z,18.60
2022-11-14T11:05:47.147Z,19.30
2022-11-14T11:08:43.259Z,20.17
2022-11-14T11:11:30.192Z,20.70
2022-11-14T11:14:01.454Z,19.02
2022-11-14T11:16:29.665Z,19.73
2022-11-14T11:19:19.522Z,18.92
2022-11-14T11:21:52.230Z,20.15
2022-11-14T11:24:36.276Z,19.10
2022-11-14T11:27:22.772Z,17.80
2022-11-14T11:30:08.444Z,27.70
2022-11-14T11:32:35.554Z,18.42
2022-11-14T11:35:09.274Z,19.38
2022-11-14T11:37:48.903Z,19.55
2022-11-14T11:40:20.070Z,19.90
2022-11-14T11:43:37.445Z,18.83
2022-11-14T11:45:54.223Z,19.25
2022-11-14T11:48:22.756Z,21.27
2022-11-14T11:50:50.365Z,22.30
2022-11-14T11:53:26.680Z,20.52
2022-11-14T11:56:13.477Z,18.90
2022-11-14T11:58:53.770Z,22.73
2022-11-14T12:01:20.727Z,21.90
2022-11-14T12:03:51.791Z,22.90
2022-11-14T12:06:27.704Z,22.55
2022-11-14T12:09:19.296Z,21.95
2022-11-14T12:11:54.199Z,20.45
2022-11-14T12:14:32.866Z,19.98
2022-11-14T12:17:20.612Z,20.45
2022-11-14T12:20:08.732Z,21.38
2022-11-14T12:23:12.544Z,21.27
2022-11-14T12:25:48.980Z,21.60
2022-11-14T12:28:58.987Z,19.60
2022-11-14T12:31:33.799Z,19.50
2022-11-14T12:34:20.893Z,21.45
2022-11-14T12:36:47.979Z,21.73
2022-11-14T12:39:31.676Z,19.77
2022-11-14T12:42:14.592Z,19.58
2022-11-14T12:44:41.416Z,21.17
2022-11-14T12:47:08.136Z,20.65
2022-11-14T12:49:53.312Z,19.63
2022-11-14T12:52:49.083Z,20.27
2022-11-14T12:55:18.914Z,18.48
2022-11-14T12:58:16.909Z,20.13
2022-11-14T13:00:46.394Z,20.33
2022-11-14T13:03:31.484Z,20.70
2022-11-14T13:06:07.474Z,18.45
2022-11-14T13:09:13.269Z,20.27
2022-11-14T13:12:06.890Z,19.60
2022-11-14T13:15:11.377Z,18.85
2022-11-14T13:17:56.902Z,19.35
2022-11-14T13:20:52.304Z,19.02
2022-11-14T13:23:28.441Z,19.13
2022-11-14T13:26:10.816Z,18.60
2022-11-14T13:28:37.598Z,19.73
2022-11-14T13:31:16.739Z,19.08
2022-11-14T13:33:49.793Z,19.15
2022-11-14T13:36:53.628Z,19.42
2022-11-14T13:39:23.800Z,18.55
2022-11-14T13:42:16.780Z,19.13
2022-11-14T13:45:36.075Z,17.25
2022-11-14T13:48:23.573Z,17.90
2022-11-14T13:50:55.394Z,17.35
2022-11-14T13:53:25.412Z,18.77
2022-11-14T13:56:07.003Z,18.55
2022-11-14T13:58:46.030Z,17.67
2022-11-14T14:01:29.043Z,17.08
2022-11-14T14:04:14.574Z,16.00
2022-11-14T14:06:50.531Z,16.15
2022-11-14T14:09:28.488Z,17.45
2022-11-14T14:12:10.500Z,17.58
2022-11-14T14:14:44.362Z,18.40
2022-11-14T14:17:32.873Z,16.85
2022-11-14T14:20:21.034Z,18.80
2022-11-14T14:23:24.994Z,17.73
2022-11-14T14:26:19.772Z,18.27
2022-11-14T14:29:01.394Z,18.08
2022-11-14T14:31:37.833Z,17.77
2022-11-14T14:34:31.152Z,18.00
2022-11-14T14:36:58.684Z,17.83
2022-11-14T14:39:27.769Z,17.73
2022-11-14T14:41:57.304Z,17.60
2022-11-14T14:44:39.522Z,18.63
2022-11-14T14:47:41.376Z,17.80
2022-11-14T14:50:20.939Z,18.75
2022-11-14T14:52:58.545Z,19.97
2022-11-14T14:55:26.830Z,19.65
2022-11-14T14:57:53.525Z,23.73
2022-11-14T15:00:29.682Z,20.00
2022-11-14T15:02:57.013Z,17.13
2022-11-14T15:05:29.749Z,18.00
2022-11-14T15:08:00.697Z,19.75
2022-11-14T15:10:30.122Z,17.83
2022-11-14T15:12:58.471Z,17.42
2022-11-14T15:15:26.769Z,19.55
2022-11-14T15:17:56.027Z,17.90
2022-11-14T15:20:27.859Z,18.42
2022-11-14T15:23:10.440Z,16.98
2022-11-14T15:25:37.817Z,19.15
2022-11-14T15:28:13.754Z,19.33
2022-11-14T15:30:40.566Z,20.77
2022-11-14T15:33:29.559Z,19.85
2022-11-14T15:36:06.744Z,20.05
2022-11-14T15:38:48.978Z,17.90
2022-11-14T15:41:23.080Z,21.88
2022-11-14T15:43:53.436Z,20.83
2022-11-14T15:46:27.603Z,19.75
2022-11-14T15:48:54.985Z,22.45
2022-11-14T15:51:44.254Z,21.20
2022-11-14T15:54:28.098Z,21.60
2022-11-14T15:56:57.601Z,23.02
2022-11-14T15:59:25.779Z,20.58
2022-11-14T16:02:12.133Z,22.83
2022-11-14T16:04:43.054Z,22.17
2022-11-14T16:07:14.443Z,28.90
2022-11-14T16:09:41.724Z,29.30
2022-11-14T16:12:08.980Z,25.80
2022-11-14T16:14:36.191Z,21.92
2022-11-14T16:17:03.229Z,21.90
2022-11-14T16:19:30.314Z,20.70
2022-11-14T16:22:02.854Z,21.40
2022-11-14T16:24:34.026Z,23.35
2022-11-14T16:27:01.388Z,23.15
2022-11-14T16:29:28.138Z,23.65
2022-11-14T16:31:55.569Z,27.05
2022-11-14T16:34:26.789Z,26.67
2022-11-14T16:37:04.062Z,27.10
2022-11-14T16:39:31.035Z,25.10
2022-11-14T16:42:05.405Z,26.23
2022-11-14T16:44:38.976Z,25.42
2022-11-14T16:47:11.959Z,27.65
2022-11-14T16:49:38.997Z,22.45
2022-11-14T16:52:08.736Z,31.50
2022-11-14T16:54:35.594Z,27.47
2022-11-14T16:57:02.465Z,26.02
2022-11-14T16:59:29.822Z,27.98
2022-11-14T17:01:56.625Z,25.30
2022-11-14T17:04:24.610Z,25.90
2022-11-14T17:06:51.416Z,26.38
2022-11-14T17:09:18.280Z,25.95
2022-11-14T17:11:45.141Z,26.30
2022-11-14T17:14:12.315Z,24.50
2022-11-14T17:16:39.702Z,25.45
2022-11-14T17:19:06.968Z,27.02
2022-11-14T17:21:33.776Z,26.10
2022-11-14T17:24:01.619Z,31.05
2022-11-14T17:26:29.088Z,27.85
2022-11-14T17:28:56.112Z,22.73
2022-11-14T17:31:23.147Z,26.75
2022-11-14T17:33:55.463Z,34.65
2022-11-14T17:36:23.960Z,30.55
2022-11-14T17:38:50.926Z,22.65
2022-11-14T17:41:18.150Z,24.35
2022-11-14T17:43:45.133Z,22.55
2022-11-14T17:46:15.851Z,24.35
2022-11-14T17:48:44.543Z,24.55
2022-11-14T17:51:14.610Z,23.08
2022-11-14T17:53:42.540Z,23.65
2022-11-14T17:56:16.235Z,26.92
2022-11-14T17:58:45.013Z,29.13
2022-11-14T18:01:14.241Z,28.55
2022-11-14T18:03:41.457Z,26.00
2022-11-14T18:06:09.809Z,26.70
2022-11-14T18:08:36.676Z,25.15
2022-11-14T18:11:05.965Z,25.92
2022-11-14T18:13:33.101Z,22.35
2022-11-14T18:16:19.362Z,23.67
2022-11-14T18:18:46.442Z,26.38
2022-11-14T18:21:16.843Z,23.30
2022-11-14T18:23:44.576Z,25.02
2022-11-14T18:26:15.705Z,25.33
2022-11-14T18:28:44.253Z,23.90
2022-11-14T18:31:12.482Z,22.92
2022-11-14T18:33:40.388Z,22.05
2022-11-14T18:36:12.133Z,23.00
2022-11-14T18:38:40.952Z,22.55
2022-11-14T18:41:10.464Z,21.08
2022-11-14T18:43:37.222Z,19.73
2022-11-14T18:46:25.343Z,20.10
2022-11-14T18:48:57.571Z,18.63
2022-11-14T18:51:27.831Z,19.35
2022-11-14T18:53:56.178Z,20.55
2022-11-14T18:56:25.411Z,22.33
2022-11-14T18:58:54.591Z,25.88
2022-11-14T19:01:26.072Z,25.50
2022-11-14T19:03:56.163Z,24.25
2022-11-14T19:06:22.923Z,21.45
2022-11-14T19:08:49.709Z,23.02
2022-11-14T19:11:36.755Z,21.20
2022-11-14T19:14:05.611Z,20.00
2022-11-14T19:16:34.421Z,18.50
2022-11-14T19:19:01.627Z,20.08
2022-11-14T19:21:28.882Z,21.33
2022-11-14T19:23:57.195Z,22.70
2022-11-14T19:26:24.153Z,20.35
2022-11-14T19:28:53.357Z,19.60
2022-11-14T19:31:22.494Z,20.52
2022-11-14T19:33:50.923Z,22.13
2022-11-14T19:36:52.743Z,21.48
2022-11-14T19:39:08.414Z,22.75
2022-11-14T19:41:35.287Z,21.58
2022-11-14T19:44:02.758Z,24.27
2022-11-14T19:46:30.245Z,27.40
2022-11-14T19:48:58.628Z,27.27
2022-11-14T19:51:26.201Z,21.45
2022-11-14T19:53:53.684Z,22.25
2022-11-14T19:56:21.394Z,20.48
2022-11-14T19:58:49.611Z,20.20
2022-11-14T20:01:22.483Z,21.95
2022-11-14T20:03:55.154Z,23.33
2022-11-14T20:06:34.217Z,31.63
2022-11-14T20:09:10.764Z,25.52
2022-11-14T20:11:37.806Z,25.33
2022-11-14T20:14:06.268Z,23.30
2022-11-14T20:16:35.581Z,23.38
2022-11-14T20:19:02.727Z,26.27
2022-11-14T20:21:31.300Z,25.33
2022-11-14T20:23:58.360Z,24.38
2022-11-14T20:26:25.818Z,23.55
2022-11-14T20:28:53.939Z,23.50
2022-11-14T20:31:27.217Z,24.77
2022-11-14T20:33:55.154Z,24.50
2022-11-14T20:36:31.985Z,24.83
2022-11-14T20:39:06.229Z,24.55
2022-11-14T20:41:33.926Z,27.90
2022-11-14T20:44:02.205Z,27.00
2022-11-14T20:46:29.226Z,30.38
2022-11-14T20:48:56.974Z,31.67
2022-11-14T20:51:25.019Z,41.05
2022-11-14T20:53:53.758Z,32.72
2022-11-14T20:56:21.727Z,30.13
2022-11-14T20:58:52.249Z,24.70
2022-11-14T21:03:46.845Z,27.15
2022-11-14T21:06:15.139Z,23.30
2022-11-14T21:08:42.493Z,26.10
2022-11-14T21:11:18.083Z,27.88
2022-11-14T21:13:56.921Z,26.42
2022-11-14T21:16:41.749Z,27.25
2022-11-14T21:19:08.517Z,29.33
2022-11-14T21:21:37.421Z,29.40
2022-11-14T21:24:05.114Z,26.88
2022-11-14T21:26:34.242Z,33.95
2022-11-14T21:29:04.232Z,27.75
2022-11-14T21:31:34.348Z,32.03
2022-11-14T21:34:03.939Z,27.13
2022-11-14T21:36:45.033Z,24.10
2022-11-14T21:39:15.729Z,25.35
2022-11-14T21:44:13.204Z,25.17
2022-11-14T21:46:40.701Z,27.73
2022-11-14T21:49:07.505Z,27.95
2022-11-14T21:51:34.896Z,28.67
2022-11-14T21:54:03.016Z,26.30
2022-11-14T21:56:31.921Z,27.27
2022-11-14T21:59:14.054Z,26.65
2022-11-14T22:02:02.137Z,30.15
2022-11-14T22:04:29.879Z,27.95
2022-11-14T22:06:58.466Z,27.95
2022-11-14T22:09:28.197Z,27.90
2022-11-14T22:11:58.445Z,27.55
2022-11-14T22:14:25.537Z,25.95
2022-11-14T22:16:52.560Z,26.38
2022-11-14T22:19:19.260Z,24.92
2022-11-14T22:21:46.420Z,24.60
2022-11-14T22:24:13.124Z,28.83
2022-11-14T22:26:40.470Z,28.80
2022-11-14T22:29:08.019Z,29.77
2022-11-14T22:31:35.102Z,26.85
2022-11-14T22:34:01.906Z,27.77
2022-11-14T22:36:29.077Z,27.42
2022-11-14T22:38:56.885Z,30.08
2022-11-14T22:41:29.179Z,28.45
2022-11-14T22:43:59.922Z,29.55
2022-11-14T22:46:27.457Z,27.85
2022-11-14T22:48:55.102Z,28.75
2022-11-14T22:51:26.896Z,29.73
2022-11-14T22:53:56.219Z,26.48
2022-11-14T22:56:25.289Z,27.23
2022-11-14T22:58:52.383Z,27.58
2022-11-14T23:01:20.708Z,26.23
2022-11-14T23:03:48.220Z,27.23
2022-11-14T23:06:18.135Z,27.90
2022-11-14T23:08:45.580Z,30.13
2022-11-14T23:11:15.805Z,29.10
2022-11-14T23:13:44.769Z,30.40
2022-11-14T23:16:16.325Z,29.38
2022-11-14T23:18:43.342Z,27.70
2022-11-14T23:21:14.238Z,27.38
2022-11-14T23:23:41.591Z,28.67
2022-11-14T23:26:14.396Z,27.85
2022-11-14T23:28:41.821Z,27.55
2022-11-14T23:31:10.155Z,28.92
2022-11-14T23:33:37.064Z,27.50
2022-11-14T23:36:04.350Z,29.88
2022-11-14T23:38:31.235Z,31.15
2022-11-14T23:41:00.144Z,30.60
2022-11-14T23:43:28.385Z,29.10
2022-11-14T23:45:55.895Z,29.27
2022-11-14T23:48:23.129Z,28.08
2022-11-14T23:50:54.937Z,28.33
2022-11-14T23:53:22.696Z,27.15
2022-11-14T23:55:53.196Z,28.20
